Time;durP1;ratioP1;P1;durP2;ratioP2;P2;SDS_P1;SDS_P2;PMS_P1;PMS_P2;Temp;Humidity;BMP_temperature;BMP_pressure;BME280_temperature;BME280_humidity;BME280_pressure;Samples;Min_cycle;Max_cycle;Signal;HPM_P1;HPM_P2
2023/12/10 00:01:14;;;;;;;30.60;6.07;;;;;;;8.37;100.00;99733.00;5083916;28;20020;-72
2023/12/10 00:03:39;;;;;;;28.98;6.18;;;;;;;8.32;100.00;99726.91;5080250;28;20098;-68
2023/12/10 00:06:05;;;;;;;28.63;6.25;;;;;;;8.36;100.00;99733.91;5087038;28;20104;-71
2023/12/10 00:08:30;;;;;;;29.13;6.05;;;;;;;8.36;100.00;99731.28;5084896;28;20043;-71
2023/12/10 00:10:56;;;;;;;31.98;6.13;;;;;;;8.43;100.00;99768.97;5085869;28;20119;-67
2023/12/10 00:13:21;;;;;;;29.13;6.18;;;;;;;8.49;100.00;99745.28;5086094;28;20032;-71
2023/12/10 00:15:47;;;;;;;27.02;5.75;;;;;;;8.51;100.00;99741.75;5084637;28;20024;-70
2023/12/10 00:18:12;;;;;;;29.88;6.38;;;;;;;8.45;100.00;99738.28;5087464;28;20036;-71
2023/12/10 00:20:37;;;;;;;29.05;6.28;;;;;;;8.46;100.00;99734.75;5083796;28;20086;-69
2023/12/10 00:23:03;;;;;;;27.38;5.30;;;;;;;8.52;100.00;99737.38;5086843;28;20486;-72
2023/12/10 00:25:31;;;;;;;28.27;5.55;;;;;;;8.58;100.00;99753.16;5085262;28;20162;-68
2023/12/10 00:27:57;;;;;;;28.25;5.80;;;;;;;8.59;100.00;99748.75;5085429;28;20054;-68
2023/12/10 00:30:23;;;;;;;29.08;5.68;;;;;;;8.56;100.00;99747.00;5085752;28;20032;-72
2023/12/10 00:32:48;;;;;;;28.55;6.25;;;;;;;8.54;100.00;99772.47;5084369;28;20024;-67
2023/12/10 00:35:13;;;;;;;29.25;5.43;;;;;;;8.45;100.00;99756.72;5086965;28;20550;-71
2023/12/10 00:37:39;;;;;;;27.08;5.90;;;;;;;8.41;100.00;99766.34;5083612;28;20036;-72
2023/12/10 00:40:06;;;;;;;28.70;6.22;;;;;;;8.30;100.00;99763.78;5086188;28;20115;-72
2023/12/10 00:42:32;;;;;;;28.00;6.38;;;;;;;8.17;100.00;99780.50;5084303;28;20020;-73
2023/12/10 00:44:57;;;;;;;26.77;5.18;;;;;;;8.18;100.00;99762.06;5085119;28;20048;-73
2023/12/10 00:47:23;;;;;;;28.00;5.53;;;;;;;8.15;100.00;99775.19;5085357;28;20391;-72
2023/12/10 00:49:48;;;;;;;25.95;5.43;;;;;;;8.19;100.00;99758.53;5083863;28;20100;-71
2023/12/10 00:52:14;;;;;;;27.08;5.35;;;;;;;8.26;100.00;99775.19;5086839;28;20028;-72
2023/12/10 00:54:40;;;;;;;26.98;5.53;;;;;;;8.15;100.00;99777.84;5083333;28;20032;-72
2023/12/10 00:57:05;;;;;;;26.45;5.28;;;;;;;7.91;100.00;99789.31;5086045;28;20526;-72
2023/12/10 00:59:30;;;;;;;26.05;5.18;;;;;;;7.59;100.00;99808.63;5084242;28;20078;-72
2023/12/10 01:01:56;;;;;;;28.35;5.22;;;;;;;7.46;100.00;99799.00;5084550;28;20027;-73
2023/12/10 01:04:22;;;;;;;26.23;5.25;;;;;;;7.36;100.00;99799.84;5085320;28;20024;-72
2023/12/10 01:06:49;;;;;;;27.13;5.55;;;;;;;7.30;100.00;99805.97;5082972;28;20036;-72
2023/12/10 01:09:17;;;;;;;29.88;5.70;;;;;;;7.16;100.00;99811.22;5086105;28;20479;-71
2023/12/10 01:11:42;;;;;;;28.58;5.95;;;;;;;7.13;100.00;99821.72;5083094;28;20491;-73
2023/12/10 01:14:08;;;;;;;28.05;5.35;;;;;;;7.05;100.00;99815.56;5086199;28;20119;-72
2023/12/10 01:16:33;;;;;;;28.75;5.85;;;;;;;7.02;100.00;99815.56;5083459;28;20039;-73
2023/12/10 01:18:58;;;;;;;29.13;5.72;;;;;;;6.98;100.00;99812.91;5084651;28;20056;-72
2023/12/10 01:21:24;;;;;;;27.83;5.45;;;;;;;6.97;100.00;99808.56;5084769;28;20035;-72
2023/12/10 01:23:50;;;;;;;27.58;5.20;;;;;;;6.94;100.00;99819.03;5083327;28;20063;-73
2023/12/10 01:26:16;;;;;;;27.80;5.38;;;;;;;7.11;100.00;99823.47;5085934;28;20024;-72
2023/12/10 01:28:41;;;;;;;28.23;5.63;;;;;;;7.27;100.00;99822.63;5082496;28;20387;-73
2023/12/10 01:31:07;;;;;;;27.67;5.60;;;;;;;7.39;100.00;99828.78;5085566;28;20021;-72
2023/12/10 01:33:32;;;;;;;27.63;5.47;;;;;;;7.49;100.00;99814.75;5083424;28;20035;-69
2023/12/10 01:35:58;;;;;;;26.65;5.20;;;;;;;7.39;100.00;99815.63;5084225;28;20032;-72
2023/12/10 01:38:23;;;;;;;25.30;5.25;;;;;;;7.30;100.00;99835.78;5084448;28;20077;-71
2023/12/10 01:40:49;;;;;;;27.40;5.50;;;;;;;7.17;100.00;99841.03;5082907;28;20116;-72
2023/12/10 01:43:17;;;;;;;27.52;5.25;;;;;;;7.07;100.00;99853.25;5085711;28;20028;-71
2023/12/10 01:45:52;;;;;;;29.38;5.90;;;;;;;6.86;100.00;99860.19;5078284;28;20055;-69
2023/12/10 01:48:20;;;;;;;27.25;5.20;;;;;;;6.75;100.00;99849.63;5079744;28;20029;-71
2023/12/10 01:50:46;;;;;;;25.60;5.35;;;;;;;6.84;100.00;99869.78;5085594;28;20106;-71
2023/12/10 01:53:13;;;;;;;29.52;5.47;;;;;;;6.73;100.00;99872.41;5081990;28;20028;-69
2023/12/10 01:55:39;;;;;;;25.63;5.13;;;;;;;6.68;100.00;99876.72;5085245;28;20032;-69
2023/12/10 01:58:05;;;;;;;25.98;5.20;;;;;;;6.55;100.00;99875.81;5082647;28;20036;-71
2023/12/10 02:00:32;;;;;;;25.52;5.25;;;;;;;6.49;100.00;99848.63;5084005;28;20434;-71
2023/12/10 02:02:59;;;;;;;26.58;5.25;;;;;;;6.41;100.00;99883.59;5083574;28;20032;-72
2023/12/10 02:05:25;;;;;;;27.98;5.65;;;;;;;6.41;100.00;99848.59;5083435;28;20052;-71
2023/12/10 02:07:52;;;;;;;25.42;4.90;;;;;;;6.32;100.00;99925.56;5084229;28;20066;-73
2023/12/10 02:10:18;;;;;;;27.90;5.75;;;;;;;6.24;100.00;99908.88;5082219;28;20052;-73
2023/12/10 02:12:45;;;;;;;25.80;5.07;;;;;;;6.31;100.00;99888.81;5085415;28;20051;-69
2023/12/10 02:15:18;;;;;;;26.08;4.88;;;;;;;6.26;100.00;99896.63;5077889;28;20032;-73
2023/12/10 02:17:48;;;;;;;28.65;5.03;;;;;;;6.25;100.00;99880.00;5078029;28;20032;-71
2023/12/10 02:20:14;;;;;;;25.95;5.13;;;;;;;6.21;100.00;99887.84;5077990;28;20033;-72
2023/12/10 02:22:52;;;;;;;25.63;5.25;;;;;;;6.20;100.00;99886.94;5077403;28;20051;-72
2023/12/10 02:25:37;;;;;;;29.15;5.25;;;;;;;6.17;100.00;99886.94;5078725;28;20024;-72
2023/12/10 02:28:03;;;;;;;26.08;5.10;;;;;;;6.18;100.00;99898.34;5082419;28;20035;-70
2023/12/10 02:30:30;;;;;;;29.20;5.05;;;;;;;6.18;100.00;99887.84;5083577;28;20400;-69
2023/12/10 02:32:56;;;;;;;26.75;5.07;;;;;;;6.22;100.00;99893.09;5083474;28;20028;-69
2023/12/10 02:35:22;;;;;;;27.25;5.40;;;;;;;6.28;100.00;99903.63;5082145;28;20029;-68
2023/12/10 02:37:48;;;;;;;26.23;5.10;;;;;;;6.23;100.00;99897.50;5084475;28;20020;-72
2023/12/10 02:40:14;;;;;;;27.08;5.50;;;;;;;6.18;100.00;99900.97;5081378;28;20364;-74
2023/12/10 02:42:39;;;;;;;26.40;5.50;;;;;;;6.21;100.00;99896.59;5084534;28;20086;-72
2023/12/10 02:45:05;;;;;;;26.67;5.18;;;;;;;6.23;100.00;99899.22;5081925;28;20060;-73
2023/12/10 02:47:30;;;;;;;25.38;4.82;;;;;;;6.21;100.00;99899.22;5083212;28;20044;-73
2023/12/10 02:49:55;;;;;;;22.88;4.40;;;;;;;6.20;100.00;99931.56;5082969;28;20032;-73
2023/12/10 02:52:23;;;;;;;25.65;4.63;;;;;;;6.19;100.00;99895.72;5082007;28;20468;-73
2023/12/10 02:54:48;;;;;;;25.30;5.07;;;;;;;6.22;100.00;99915.88;5083002;28;20417;-73
2023/12/10 02:57:13;;;;;;;26.15;5.20;;;;;;;6.35;100.00;99909.81;5080977;28;20086;-74
2023/12/10 02:59:39;;;;;;;27.35;4.72;;;;;;;6.26;100.00;99913.25;5084451;28;20052;-74
2023/12/10 03:02:04;;;;;;;26.98;5.50;;;;;;;6.22;100.00;99918.50;5081946;28;20029;-74
2023/12/10 03:04:30;;;;;;;25.33;5.05;;;;;;;6.18;100.00;99911.44;5083143;28;20029;-74
2023/12/10 03:06:55;;;;;;;26.45;5.05;;;;;;;6.30;100.00;99914.16;5083183;28;20032;-73
2023/12/10 03:09:20;;;;;;;26.20;4.88;;;;;;;6.21;100.00;99917.59;5081533;28;20024;-73
2023/12/10 03:11:46;;;;;;;26.10;5.10;;;;;;;6.32;100.00;99912.44;5084215;28;20051;-72
2023/12/10 03:14:11;;;;;;;27.50;5.47;;;;;;;6.27;100.00;99903.63;5081031;28;20540;-72
2023/12/10 03:16:36;;;;;;;27.30;5.18;;;;;;;6.28;100.00;99927.25;5083699;28;20038;-73
2023/12/10 03:19:02;;;;;;;24.92;5.15;;;;;;;6.35;100.00;99922.06;5082097;28;20036;-72
2023/12/10 03:21:27;;;;;;;25.23;5.10;;;;;;;6.36;100.00;99923.81;5082297;28;20409;-73
2023/12/10 03:23:52;;;;;;;24.65;4.85;;;;;;;6.40;100.00;99915.09;5083219;28;20020;-73
2023/12/10 03:26:18;;;;;;;25.90;5.05;;;;;;;6.40;100.00;99920.34;5080090;28;20024;-72
2023/12/10 03:28:43;;;;;;;24.98;4.75;;;;;;;6.49;100.00;99923.03;5084166;28;20073;-74
2023/12/10 03:31:09;;;;;;;27.95;5.22;;;;;;;6.44;100.00;99983.38;5081893;28;20529;-74
2023/12/10 03:33:34;;;;;;;25.90;5.03;;;;;;;6.41;100.00;99941.34;5087485;28;20033;-73
2023/12/10 03:36:00;;;;;;;25.88;5.00;;;;;;;6.43;100.00;99958.00;5086065;28;20020;-72
2023/12/10 03:38:26;;;;;;;25.10;5.13;;;;;;;6.51;100.00;99965.94;5084655;28;20023;-73
2023/12/10 03:40:51;;;;;;;25.23;5.45;;;;;;;6.61;100.00;99888.97;5087322;28;20043;-72
2023/12/10 03:43:16;;;;;;;23.55;4.97;;;;;;;6.80;100.00;99953.00;5084603;28;20033;-73
2023/12/10 03:45:42;;;;;;;23.95;4.57;;;;;;;6.82;100.00;99946.88;5087948;28;20506;-73
2023/12/10 03:48:07;;;;;;;24.63;4.35;;;;;;;6.87;100.00;99919.72;5085329;28;20024;-73
2023/12/10 03:50:32;;;;;;;25.00;4.47;;;;;;;6.97;100.00;99949.56;5086464;28;20036;-73
2023/12/10 03:52:58;;;;;;;26.35;5.13;;;;;;;7.16;100.00;99955.78;5085987;28;20039;-72
2023/12/10 03:55:23;;;;;;;23.92;4.88;;;;;;;7.36;100.00;99969.00;5085493;28;20056;-73
2023/12/10 03:57:50;;;;;;;24.67;4.90;;;;;;;7.41;100.00;99950.59;5087259;28;20027;-73
2023/12/10 04:00:16;;;;;;;21.27;4.40;;;;;;;7.52;100.00;99969.94;5084250;28;20035;-74
2023/12/10 04:02:42;;;;;;;23.65;4.93;;;;;;;7.67;100.00;99958.56;5078869;28;20479;-71
2023/12/10 04:05:11;;;;;;;24.42;5.10;;;;;;;7.80;100.00;99943.69;5086991;28;20035;-72
2023/12/10 04:07:37;;;;;;;26.77;4.60;;;;;;;7.95;100.00;99969.13;5083579;28;20040;-71
2023/12/10 04:10:03;;;;;;;23.33;4.53;;;;;;;7.92;100.00;99948.97;5086153;28;20037;-70
2023/12/10 04:12:30;;;;;;;22.63;4.10;;;;;;;7.97;100.00;99977.91;5085590;28;20032;-71
2023/12/10 04:14:56;;;;;;;23.20;4.47;;;;;;;8.02;100.00;99966.53;5085523;28;20031;-69
2023/12/10 04:17:21;;;;;;;24.95;5.15;;;;;;;8.01;100.00;99977.06;5086579;28;20028;-71
2023/12/10 04:19:46;;;;;;;24.67;4.55;;;;;;;7.96;100.00;99982.28;5084057;28;20032;-69
2023/12/10 04:22:12;;;;;;;24.00;4.50;;;;;;;7.98;100.00;99975.28;5087425;28;20024;-72
2023/12/10 04:24:37;;;;;;;23.98;4.97;;;;;;;8.01;100.00;99979.69;5084157;28;20028;-72
2023/12/10 04:27:03;;;;;;;23.58;4.43;;;;;;;8.08;100.00;99981.44;5086126;28;20021;-72
2023/12/10 04:29:28;;;;;;;25.30;4.55;;;;;;;8.09;100.00;99985.81;5085633;28;20396;-71
2023/12/10 04:31:54;;;;;;;23.83;4.47;;;;;;;8.06;100.00;99988.44;5084527;28;20428;-72
2023/12/10 04:34:19;;;;;;;22.67;4.50;;;;;;;8.13;100.00;100015.69;5086458;28;20043;-70
2023/12/10 04:36:45;;;;;;;22.63;4.25;;;;;;;8.14;100.00;99977.91;5083693;28;20032;-67
2023/12/10 04:39:10;;;;;;;24.88;4.20;;;;;;;8.20;100.00;100009.53;5086768;28;20039;-66
2023/12/10 04:41:36;;;;;;;23.77;4.05;;;;;;;8.15;100.00;100012.13;5083326;28;20036;-71
2023/12/10 04:44:01;;;;;;;24.92;4.28;;;;;;;8.17;100.00;100020.06;5085161;28;20494;-71
2023/12/10 04:46:28;;;;;;;23.92;4.80;;;;;;;8.22;100.00;100031.47;5085027;28;20052;-71
2023/12/10 04:48:54;;;;;;;22.50;4.50;;;;;;;8.30;100.00;100039.38;5084132;28;20025;-71
2023/12/10 04:51:19;;;;;;;23.90;4.47;;;;;;;8.27;100.00;100028.84;5086400;28;20043;-69
2023/12/10 04:53:44;;;;;;;24.58;4.43;;;;;;;8.28;100.00;100026.19;5081897;28;20032;-66
2023/12/10 04:56:10;;;;;;;22.63;4.57;;;;;;;8.30;100.00;100027.09;5086662;28;20478;-70
2023/12/10 04:58:35;;;;;;;23.35;4.18;;;;;;;8.30;100.00;100040.25;5083913;28;20020;-65
2023/12/10 05:01:02;;;;;;;22.20;4.18;;;;;;;8.32;100.00;100054.28;5084900;28;20039;-69
2023/12/10 05:03:27;;;;;;;23.30;4.80;;;;;;;8.27;100.00;100063.97;5085152;28;20024;-74
2023/12/10 05:05:53;;;;;;;23.13;3.95;;;;;;;8.32;100.00;100070.09;5083867;28;20039;-72
2023/12/10 05:08:18;;;;;;;23.30;4.00;;;;;;;8.30;100.00;100066.59;5084689;28;20502;-73
2023/12/10 05:10:44;;;;;;;22.52;4.45;;;;;;;8.28;100.00;100081.50;5083297;28;20060;-73
2023/12/10 05:13:09;;;;;;;25.50;4.60;;;;;;;8.31;100.00;100088.53;5085870;28;20040;-71
2023/12/10 05:15:34;;;;;;;25.20;4.95;;;;;;;8.28;100.00;100073.59;5083733;28;20479;-73
2023/12/10 05:18:03;;;;;;;24.27;4.88;;;;;;;8.31;100.00;100109.59;5084700;28;20146;-73
2023/12/10 05:20:29;;;;;;;24.80;4.65;;;;;;;8.33;100.00;100103.47;5083109;28;20433;-73
2023/12/10 05:22:54;;;;;;;23.13;4.70;;;;;;;8.31;100.00;100101.69;5083610;28;20029;-71
2023/12/10 05:25:19;;;;;;;23.65;4.82;;;;;;;8.36;100.00;100097.34;5085786;28;20439;-72
2023/12/10 05:27:45;;;;;;;21.08;4.13;;;;;;;8.30;100.00;100086.75;5082517;28;20033;-73
2023/12/10 05:30:11;;;;;;;23.50;4.40;;;;;;;8.27;100.00;100098.19;5085602;28;20116;-73
2023/12/10 05:32:37;;;;;;;24.00;4.60;;;;;;;8.32;100.00;100112.22;5083280;28;20034;-72
2023/12/10 05:35:03;;;;;;;24.88;4.40;;;;;;;8.34;100.00;100084.16;5084518;28;20111;-74
2023/12/10 05:37:28;;;;;;;22.65;4.60;;;;;;;8.40;100.00;100116.63;5084538;28;20486;-73
2023/12/10 05:39:54;;;;;;;23.90;4.80;;;;;;;8.39;100.00;100118.41;5083283;28;20487;-74
2023/12/10 05:42:19;;;;;;;24.77;5.00;;;;;;;8.38;100.00;100157.00;5085250;28;20043;-73
2023/12/10 05:44:45;;;;;;;24.33;4.97;;;;;;;8.42;100.00;100133.31;5082440;28;20020;-73
2023/12/10 05:47:10;;;;;;;21.85;3.92;;;;;;;8.41;100.00;100119.28;5085075;28;20048;-73
2023/12/10 05:49:36;;;;;;;23.17;4.47;;;;;;;8.48;100.00;100130.75;5082885;28;20380;-74
2023/12/10 05:52:01;;;;;;;25.95;4.88;;;;;;;8.44;100.00;100121.03;5084089;28;20060;-73
2023/12/10 05:54:27;;;;;;;23.17;4.50;;;;;;;8.38;100.00;100117.50;5083804;28;20020;-73
2023/12/10 05:56:52;;;;;;;23.80;4.65;;;;;;;8.38;100.00;100140.34;5082531;28;20028;-72
2023/12/10 05:59:17;;;;;;;24.95;5.25;;;;;;;8.37;100.00;100157.91;5085516;28;20474;-73
2023/12/10 06:01:43;;;;;;;24.10;4.63;;;;;;;8.35;100.00;100149.09;5081660;28;20040;-73
2023/12/10 06:04:08;;;;;;;21.85;4.22;;;;;;;8.48;100.00;100180.78;5084618;28;20028;-72
2023/12/10 06:06:33;;;;;;;24.80;4.70;;;;;;;8.44;100.00;100174.63;5081923;28;20085;-73
2023/12/10 06:08:59;;;;;;;23.38;4.57;;;;;;;8.44;100.00;100160.56;5081918;28;20124;-73
2023/12/10 06:11:24;;;;;;;22.45;4.40;;;;;;;8.39;100.00;100168.44;5084323;28;20107;-73
2023/12/10 06:13:49;;;;;;;23.23;4.22;;;;;;;8.34;100.00;100186.88;5082013;28;20020;-73
2023/12/10 06:16:15;;;;;;;22.30;4.32;;;;;;;8.37;100.00;100176.34;5085088;28;20036;-74
2023/12/10 06:18:40;;;;;;;24.85;4.55;;;;;;;8.36;100.00;100182.47;5080769;28;20021;-73
2023/12/10 06:21:06;;;;;;;22.98;4.60;;;;;;;8.33;100.00;100186.84;5084197;28;20036;-74
2023/12/10 06:23:31;;;;;;;26.45;4.85;;;;;;;8.32;100.00;100188.59;5082920;28;20506;-73
2023/12/10 06:25:56;;;;;;;25.25;5.00;;;;;;;8.33;100.00;100193.00;5082941;28;20066;-74
2023/12/10 06:28:22;;;;;;;25.20;4.20;;;;;;;8.33;100.00;100203.53;5084124;28;20020;-71
2023/12/10 06:30:47;;;;;;;24.40;4.32;;;;;;;8.29;100.00;100211.44;5081662;28;20029;-73
2023/12/10 06:33:13;;;;;;;23.60;4.35;;;;;;;8.33;100.00;100227.25;5077388;28;20507;-71
2023/12/10 06:35:38;;;;;;;24.95;4.55;;;;;;;8.36;100.00;100245.69;5084084;28;20036;-72
2023/12/10 06:38:03;;;;;;;26.25;5.13;;;;;;;8.35;100.00;100248.31;5082673;28;20055;-69
2023/12/10 06:40:29;;;;;;;26.08;4.80;;;;;;;8.32;100.00;100236.00;5082858;28;20369;-70
2023/12/10 06:42:54;;;;;;;22.95;4.43;;;;;;;8.28;100.00;100251.78;5083756;28;20063;-71
2023/12/10 06:45:20;;;;;;;25.83;4.75;;;;;;;8.27;100.00;100245.66;5081350;28;20029;-71
2023/12/10 06:47:45;;;;;;;24.73;4.68;;;;;;;8.25;100.00;100272.84;5085261;28;20068;-68
2023/12/10 06:50:11;;;;;;;24.55;4.43;;;;;;;8.23;100.00;100266.69;5081322;28;20033;-72
2023/12/10 06:52:36;;;;;;;22.40;4.72;;;;;;;8.33;100.00;100279.00;5084118;28;20034;-71
2023/12/10 06:55:02;;;;;;;25.38;4.50;;;;;;;8.33;100.00;100279.91;5082546;28;20433;-67
2023/12/10 06:57:27;;;;;;;25.25;4.90;;;;;;;8.27;100.00;100268.47;5082360;28;20060;-72
2023/12/10 06:59:53;;;;;;;24.88;4.75;;;;;;;8.26;100.00;100306.22;5083882;28;20039;-71
2023/12/10 07:02:18;;;;;;;23.80;4.10;;;;;;;8.33;100.00;100293.09;5080885;28;20528;-68
2023/12/10 07:04:44;;;;;;;24.35;4.55;;;;;;;8.37;100.00;100300.13;5083890;28;20039;-72
2023/12/10 07:07:09;;;;;;;26.17;4.18;;;;;;;8.31;100.00;100300.06;5081370;28;20467;-71
2023/12/10 07:09:35;;;;;;;26.52;5.28;;;;;;;8.22;100.00;100300.03;5081943;28;20120;-71
2023/12/10 07:12:01;;;;;;;26.63;5.05;;;;;;;8.27;100.00;100300.06;5082505;28;20044;-71
2023/12/10 07:14:27;;;;;;;25.08;4.80;;;;;;;8.19;100.00;100316.69;5082243;28;20029;-72
2023/12/10 07:16:52;;;;;;;22.83;4.22;;;;;;;8.18;100.00;100308.78;5083632;28;20375;-68
2023/12/10 07:19:17;;;;;;;27.73;5.80;;;;;;;8.21;100.00;100321.97;5080926;28;20028;-67
2023/12/10 07:21:43;;;;;;;23.50;5.20;;;;;;;8.25;100.00;100310.59;5084522;28;20073;-66
2023/12/10 07:24:08;;;;;;;22.88;4.25;;;;;;;8.26;100.00;100329.94;5081401;28;20511;-71
2023/12/10 07:26:34;;;;;;;24.88;4.28;;;;;;;8.27;100.00;100323.75;5082805;28;20051;-70
2023/12/10 07:28:59;;;;;;;23.45;4.95;;;;;;;8.21;100.00;100329.88;5082823;28;20119;-67
2023/12/10 07:31:25;;;;;;;23.65;5.00;;;;;;;8.20;100.00;100336.03;5081491;28;20036;-71
2023/12/10 07:33:51;;;;;;;25.80;4.50;;;;;;;8.18;100.00;100350.91;5083892;28;20032;-72
2023/12/10 07:36:17;;;;;;;23.35;4.68;;;;;;;8.12;100.00;100367.56;5080633;28;20039;-72
2023/12/10 07:38:42;;;;;;;25.42;4.80;;;;;;;8.27;100.00;100371.16;5083840;28;20386;-71
2023/12/10 07:41:07;;;;;;;24.85;4.57;;;;;;;8.22;100.00;100372.91;5081509;28;20028;-72
2023/12/10 07:43:33;;;;;;;26.38;5.03;;;;;;;8.23;100.00;100372.91;5082459;28;20468;-73
2023/12/10 07:45:59;;;;;;;24.17;4.40;;;;;;;8.26;100.00;100369.44;5082377;28;20062;-72
2023/12/10 07:48:24;;;;;;;25.17;4.78;;;;;;;8.21;100.00;100382.53;5081504;28;20033;-73
2023/12/10 07:50:49;;;;;;;25.13;4.05;;;;;;;8.17;100.00;100367.63;5083709;28;20020;-71
2023/12/10 07:53:16;;;;;;;24.00;4.22;;;;;;;8.16;100.00;100400.06;5080487;28;20388;-72
2023/12/10 07:55:41;;;;;;;23.63;4.28;;;;;;;8.14;100.00;100397.44;5084029;28;20047;-73
2023/12/10 07:58:07;;;;;;;25.58;4.65;;;;;;;8.11;100.00;100402.69;5081312;28;20470;-73
2023/12/10 08:00:32;;;;;;;24.92;4.80;;;;;;;8.08;100.00;100413.19;5082186;28;20142;-73
2023/12/10 08:02:58;;;;;;;23.38;4.47;;;;;;;8.07;100.00;100410.50;5082695;28;20027;-71
2023/12/10 08:05:24;;;;;;;24.75;4.82;;;;;;;8.03;100.00;100423.66;5081084;28;20426;-73
2023/12/10 08:07:49;;;;;;;22.85;4.22;;;;;;;8.05;100.00;100426.31;5083737;28;20085;-71
2023/12/10 08:10:15;;;;;;;27.25;5.22;;;;;;;8.12;100.00;100411.44;5080477;28;20031;-72
2023/12/10 08:12:40;;;;;;;27.48;4.82;;;;;;;8.07;100.00;100411.41;5083227;28;20032;-73
2023/12/10 08:15:06;;;;;;;24.58;4.72;;;;;;;8.06;100.00;100419.31;5081439;28;20390;-72
2023/12/10 08:17:32;;;;;;;24.88;5.00;;;;;;;8.07;100.00;100442.09;5084394;28;20118;-71
2023/12/10 08:19:57;;;;;;;26.30;5.40;;;;;;;8.11;100.00;100430.72;5085973;28;20474;-71
2023/12/10 08:22:23;;;;;;;26.40;5.40;;;;;;;8.10;100.00;100431.63;5084437;28;20058;-70
2023/12/10 08:24:48;;;;;;;27.50;5.38;;;;;;;8.11;100.00;100430.72;5087266;28;20386;-68
2023/12/10 08:27:14;;;;;;;25.73;5.43;;;;;;;8.15;100.00;100450.97;5082433;28;20031;-71
2023/12/10 08:29:39;;;;;;;23.63;4.50;;;;;;;8.09;100.00;100456.19;5086974;28;20036;-69
2023/12/10 08:32:05;;;;;;;24.50;4.82;;;;;;;8.10;100.00;100469.34;5084800;28;20123;-71
2023/12/10 08:34:30;;;;;;;25.10;4.78;;;;;;;8.14;100.00;100464.97;5085374;28;20036;-69
2023/12/10 08:36:56;;;;;;;26.58;4.80;;;;;;;8.14;100.00;100459.72;5085595;28;20425;-69
2023/12/10 08:39:21;;;;;;;24.98;5.25;;;;;;;8.08;100.00;100471.09;5082386;28;20036;-70
2023/12/10 08:41:46;;;;;;;24.08;4.50;;;;;;;8.11;100.00;100470.22;5086849;28;20051;-72
2023/12/10 08:44:12;;;;;;;24.77;5.15;;;;;;;8.18;100.00;100464.16;5083880;28;20068;-67
2023/12/10 08:46:37;;;;;;;26.05;4.40;;;;;;;8.19;100.00;100476.44;5085555;28;20037;-68
2023/12/10 08:49:02;;;;;;;24.88;4.70;;;;;;;8.20;100.00;100470.31;5083862;28;20059;-72
2023/12/10 08:51:28;;;;;;;25.23;4.75;;;;;;;8.28;100.00;100444.91;5084727;28;20056;-72
2023/12/10 08:53:53;;;;;;;23.23;4.40;;;;;;;8.39;100.00;100497.69;5086090;28;20081;-67
2023/12/10 08:56:19;;;;;;;26.45;5.53;;;;;;;8.50;100.00;100489.88;5083416;28;20035;-69
2023/12/10 08:58:46;;;;;;;24.65;4.80;;;;;;;8.58;100.00;100477.66;5079170;28;20452;-72
2023/12/10 09:01:12;;;;;;;24.88;5.05;;;;;;;8.67;100.00;100480.34;5085935;28;20039;-70
2023/12/10 09:03:38;;;;;;;25.08;4.95;;;;;;;8.54;100.00;100495.19;5084124;28;20046;-72
2023/12/10 09:06:04;;;;;;;25.42;4.85;;;;;;;8.36;100.00;100498.53;5084962;28;20566;-68
2023/12/10 09:08:30;;;;;;;24.30;4.40;;;;;;;8.30;100.00;100482.69;5084915;28;20106;-70
2023/12/10 09:10:55;;;;;;;23.77;4.60;;;;;;;8.32;100.00;100491.47;5083870;28;20055;-71
2023/12/10 09:13:21;;;;;;;23.23;4.25;;;;;;;8.26;100.00;100491.44;5086066;28;20024;-69
2023/12/10 09:15:46;;;;;;;24.70;4.53;;;;;;;8.46;100.00;100490.72;5082789;28;20063;-71
2023/12/10 09:18:12;;;;;;;24.10;4.45;;;;;;;8.52;100.00;100503.97;5084682;28;20086;-69
2023/12/10 09:20:38;;;;;;;27.98;4.80;;;;;;;8.37;100.00;100507.31;5083488;28;20391;-72
2023/12/10 09:23:03;;;;;;;24.02;4.93;;;;;;;8.30;100.00;100509.03;5084513;28;20047;-72
2023/12/10 09:25:29;;;;;;;24.75;4.45;;;;;;;8.29;100.00;100528.31;5084768;28;20398;-73
2023/12/10 09:27:54;;;;;;;22.60;4.80;;;;;;;8.33;100.00;100513.41;5082683;28;20033;-74
2023/12/10 09:30:20;;;;;;;27.60;4.95;;;;;;;8.47;100.00;100516.22;5085818;28;20056;-72
2023/12/10 09:32:45;;;;;;;27.58;5.07;;;;;;;8.59;100.00;100515.41;5082486;28;20419;-73
2023/12/10 09:35:10;;;;;;;24.85;5.25;;;;;;;8.75;100.00;100516.41;5083911;28;20505;-73
2023/12/10 09:37:37;;;;;;;28.75;4.90;;;;;;;8.87;100.00;100524.41;5083631;28;20107;-74
2023/12/10 09:40:04;;;;;;;25.13;4.70;;;;;;;8.75;100.00;100511.13;5084130;28;20025;-73
2023/12/10 09:42:29;;;;;;;24.10;5.00;;;;;;;8.57;100.00;100522.44;5084221;28;20475;-71
2023/12/10 09:44:56;;;;;;;26.27;4.75;;;;;;;8.49;100.00;100520.63;5083424;28;20048;-73
2023/12/10 09:47:25;;;;;;;24.15;4.50;;;;;;;8.65;100.00;100516.34;5085192;28;20036;-74
2023/12/10 09:49:54;;;;;;;24.58;4.65;;;;;;;8.62;100.00;100505.78;5082031;28;20025;-73
2023/12/10 09:52:19;;;;;;;25.83;5.18;;;;;;;8.56;100.00;100511.00;5084286;28;20035;-72
2023/12/10 09:54:45;;;;;;;26.35;4.43;;;;;;;8.73;100.00;100509.34;5078100;28;20027;-74
2023/12/10 09:57:11;;;;;;;26.45;4.40;;;;;;;8.95;100.00;100508.63;5084747;28;20028;-71
2023/12/10 09:59:37;;;;;;;23.73;4.57;;;;;;;8.86;100.00;100517.34;5083492;28;20081;-73
2023/12/10 10:02:05;;;;;;;24.85;5.10;;;;;;;8.80;100.00;100520.84;5083480;28;20032;-73
2023/12/10 10:04:30;;;;;;;22.88;4.28;;;;;;;9.14;100.00;100514.88;5083854;28;20107;-73
2023/12/10 10:06:55;;;;;;;23.63;4.63;;;;;;;9.25;100.00;100529.00;5082705;28;20731;-73
2023/12/10 10:09:21;;;;;;;23.38;4.68;;;;;;;9.30;100.00;100510.56;5084887;28;20028;-74
2023/12/10 10:11:47;;;;;;;25.08;4.65;;;;;;;9.36;100.00;100513.22;5081598;28;20029;-73
2023/12/10 10:14:12;;;;;;;26.73;4.70;;;;;;;9.55;100.00;100519.44;5084820;28;20028;-73
2023/12/10 10:16:37;;;;;;;24.60;5.00;;;;;;;9.68;100.00;100513.31;5082676;28;20071;-73
2023/12/10 10:19:03;;;;;;;24.75;4.53;;;;;;;10.15;100.00;100502.84;5083204;28;20024;-73
2023/12/10 10:21:30;;;;;;;21.52;4.38;;;;;;;10.36;100.00;100508.16;5083888;28;20032;-73
2023/12/10 10:23:56;;;;;;;22.38;4.07;;;;;;;10.40;100.00;100478.22;5082057;28;20032;-72
2023/12/10 10:26:21;;;;;;;23.70;4.63;;;;;;;10.58;100.00;100487.00;5084760;28;20039;-72
2023/12/10 10:28:47;;;;;;;23.05;4.72;;;;;;;11.07;100.00;100481.59;5081610;28;20028;-73
2023/12/10 10:31:12;;;;;;;23.67;4.30;;;;;;;11.36;100.00;100485.91;5083084;28;20034;-73
2023/12/10 10:33:38;;;;;;;25.02;4.53;;;;;;;11.52;100.00;100490.22;5082048;28;20031;-72
2023/12/10 10:36:05;;;;;;;23.13;4.70;;;;;;;11.47;100.00;100507.03;5083095;28;20115;-74
2023/12/10 10:38:31;;;;;;;22.48;4.35;;;;;;;11.54;100.00;100508.75;5083056;28;20043;-74
2023/12/10 10:41:00;;;;;;;20.05;3.90;;;;;;;11.55;100.00;100488.44;5081228;28;20039;-73
2023/12/10 10:43:26;;;;;;;22.80;4.10;;;;;;;11.92;100.00;100498.84;5083961;28;20447;-74
2023/12/10 10:45:53;;;;;;;23.17;4.25;;;;;;;11.97;100.00;100505.00;5081093;28;20068;-74
2023/12/10 10:48:22;;;;;;;22.85;4.45;;;;;;;11.97;100.00;100513.84;5084544;28;20475;-74
2023/12/10 10:50:49;;;;;;;23.42;4.55;;;;;;;11.77;100.00;100510.41;5077183;28;20079;-74
2023/12/10 10:53:15;;;;;;;21.00;4.00;;;;;;;11.94;100.00;100502.38;5084170;28;20050;-74
2023/12/10 10:55:40;;;;;;;24.00;4.45;;;;;;;12.23;100.00;100511.88;5081531;28;20456;-74
2023/12/10 10:58:27;;;;;;;22.65;4.50;;;;;;;12.32;100.00;100503.84;5083166;28;20043;-74
2023/12/10 11:00:52;;;;;;;23.25;4.75;;;;;;;12.63;100.00;100495.66;5077922;28;20475;-74
2023/12/10 11:03:18;;;;;;;23.73;4.10;;;;;;;12.48;100.00;100500.19;5084283;28;20039;-74
2023/12/10 11:05:44;;;;;;;23.63;4.50;;;;;;;12.29;100.00;100506.53;5081061;28;20032;-74
2023/12/10 11:08:11;;;;;;;22.42;4.30;;;;;;;12.71;100.00;100497.34;5083372;28;20031;-74
2023/12/10 11:10:42;;;;;;;21.58;4.40;;;;;;;12.48;100.00;100491.34;5081954;28;20032;-74
2023/12/10 11:13:07;;;;;;;21.90;4.57;;;;;;;11.66;100.00;100484.88;5082832;28;20107;-74